createdAt,value
2018-07-09T04:00:54.619Z,14.64
2018-07-09T04:01:54.439Z,14.67
2018-07-09T04:03:47.137Z,14.75
2018-07-09T04:04:47.017Z,14.79
2018-07-09T04:06:39.685Z,14.75
2018-07-09T04:07:39.579Z,14.77
2018-07-09T04:09:32.283Z,14.69
2018-07-09T04:10:32.149Z,14.87
2018-07-09T04:12:24.833Z,14.87
2018-07-09T04:13:24.726Z,14.82
2018-07-09T04:15:17.430Z,14.77
2018-07-09T04:16:17.301Z,14.83
2018-07-09T04:18:09.980Z,14.94
2018-07-09T04:19:09.880Z,14.89
2018-07-09T04:21:02.675Z,14.89
2018-07-09T04:22:02.455Z,14.86
2018-07-09T04:23:55.128Z,14.86
2018-07-09T04:24:55.025Z,14.97
2018-07-09T04:26:47.715Z,15.04
2018-07-09T04:27:47.593Z,15.00
2018-07-09T04:29:40.268Z,15.00
2018-07-09T04:30:40.162Z,15.01
2018-07-09T04:32:32.860Z,15.07
2018-07-09T04:33:32.731Z,15.00
2018-07-09T04:35:25.419Z,15.02
2018-07-09T04:36:25.314Z,15.05
2018-07-09T04:38:18.013Z,15.19
2018-07-09T04:39:17.887Z,15.12
2018-07-09T04:41:10.567Z,15.12
2018-07-09T04:42:10.465Z,15.18
2018-07-09T04:44:03.162Z,15.15
2018-07-09T04:45:03.039Z,15.19
2018-07-09T04:46:55.718Z,15.25
2018-07-09T04:47:55.610Z,15.22
2018-07-09T04:49:48.304Z,15.30
2018-07-09T04:50:48.180Z,15.31
2018-07-09T04:52:40.863Z,15.38
2018-07-09T04:53:40.765Z,15.47
2018-07-09T04:55:33.451Z,15.45
2018-07-09T04:56:33.335Z,15.44
2018-07-09T04:58:26.010Z,15.47
2018-07-09T04:59:25.904Z,15.55
2018-07-09T05:01:18.596Z,15.45
2018-07-09T05:02:18.479Z,15.55
2018-07-09T05:04:11.152Z,15.58
2018-07-09T05:05:11.051Z,15.63
2018-07-09T05:07:03.741Z,15.63
2018-07-09T05:08:03.621Z,15.65
2018-07-09T05:09:56.299Z,15.74
2018-07-09T05:10:56.188Z,15.74
2018-07-09T05:12:48.893Z,15.80
2018-07-09T05:13:48.766Z,15.73
2018-07-09T05:15:41.447Z,15.89
2018-07-09T05:16:41.344Z,15.86
2018-07-09T05:18:34.040Z,15.86
2018-07-09T05:19:33.913Z,15.91
2018-07-09T05:21:26.591Z,15.93
2018-07-09T05:22:26.494Z,15.93
2018-07-09T05:24:19.189Z,15.98
2018-07-09T05:25:19.065Z,15.95
2018-07-09T05:27:11.754Z,16.07
2018-07-09T05:28:11.642Z,16.07
2018-07-09T05:30:04.338Z,16.08
2018-07-09T05:31:04.218Z,16.07
2018-07-09T05:32:56.892Z,16.22
2018-07-09T05:33:56.792Z,16.14
2018-07-09T05:35:49.490Z,16.25
2018-07-09T05:36:49.373Z,16.33
2018-07-09T05:38:42.051Z,16.33
2018-07-09T05:39:41.942Z,16.36
2018-07-09T05:41:34.640Z,16.40
2018-07-09T05:42:34.521Z,16.49
2018-07-09T05:44:27.202Z,16.52
2018-07-09T05:45:27.100Z,16.51
2018-07-09T05:47:19.803Z,16.57
2018-07-09T05:48:19.686Z,16.63
2018-07-09T05:50:12.361Z,16.76
2018-07-09T05:51:12.258Z,16.73
2018-07-09T05:53:04.953Z,16.70
2018-07-09T05:54:04.836Z,16.88
2018-07-09T05:55:57.516Z,16.92
2018-07-09T05:56:57.417Z,17.00
2018-07-09T05:58:50.142Z,17.30
2018-07-09T05:59:49.993Z,17.35
2018-07-09T06:01:42.678Z,17.47
2018-07-09T06:02:42.575Z,17.65
2018-07-09T06:04:35.276Z,18.02
2018-07-09T06:05:35.206Z,18.17
2018-07-09T06:07:27.839Z,18.57
2018-07-09T06:08:27.730Z,18.91
2018-07-09T06:10:20.437Z,19.28
2018-07-09T06:11:20.350Z,19.40
2018-07-09T06:13:13.003Z,19.75
2018-07-09T06:14:12.898Z,19.72
2018-07-09T06:16:05.601Z,19.72
2018-07-09T06:17:05.489Z,19.82
2018-07-09T06:18:58.171Z,20.22
2018-07-09T06:19:58.074Z,20.27
2018-07-09T06:21:50.781Z,20.37
2018-07-09T06:22:50.660Z,20.25
2018-07-09T06:24:43.345Z,20.68
2018-07-09T06:25:43.247Z,20.40
2018-07-09T06:27:35.960Z,19.93
2018-07-09T06:28:35.836Z,20.25
2018-07-09T06:30:28.541Z,19.83
2018-07-09T06:31:28.496Z,19.64
2018-07-09T06:33:21.152Z,19.55
2018-07-09T06:34:21.033Z,19.56
2018-07-09T06:36:13.748Z,19.50
2018-07-09T06:37:13.631Z,19.49
2018-07-09T06:39:06.314Z,19.46
2018-07-09T06:40:06.215Z,19.55
2018-07-09T06:41:58.923Z,19.71
2018-07-09T06:42:58.848Z,20.00
2018-07-09T06:44:51.493Z,19.95
2018-07-09T06:45:51.394Z,20.02
2018-07-09T06:47:44.105Z,20.37
2018-07-09T06:48:43.983Z,20.57
2018-07-09T06:50:36.678Z,20.68
2018-07-09T06:51:36.585Z,20.88
2018-07-09T06:53:29.435Z,21.13
2018-07-09T06:54:29.163Z,21.25
2018-07-09T06:56:21.854Z,21.59
2018-07-09T06:57:21.759Z,21.67
2018-07-09T06:59:14.468Z,21.30
2018-07-09T07:00:14.350Z,20.96
2018-07-09T07:02:07.046Z,21.64
2018-07-09T07:03:06.944Z,21.61
2018-07-09T07:04:59.658Z,21.67
2018-07-09T07:05:59.536Z,22.00
2018-07-09T07:07:52.230Z,21.85
2018-07-09T07:08:52.182Z,21.85
2018-07-09T07:10:44.845Z,21.99
2018-07-09T07:11:44.729Z,21.73
2018-07-09T07:13:37.416Z,21.52
2018-07-09T07:14:37.321Z,21.64
2018-07-09T07:16:30.031Z,21.67
2018-07-09T07:17:29.917Z,21.48
2018-07-09T07:19:22.611Z,21.23
2018-07-09T07:20:22.510Z,21.73
2018-07-09T07:22:15.221Z,24.27
2018-07-09T07:23:15.105Z,26.68
2018-07-09T07:25:07.808Z,29.03
2018-07-09T07:26:07.717Z,28.78
2018-07-09T07:28:00.441Z,29.72
2018-07-09T07:29:00.330Z,28.61
2018-07-09T07:30:53.032Z,28.23
2018-07-09T07:31:52.935Z,28.24
2018-07-09T07:33:45.657Z,26.01
2018-07-09T07:34:45.551Z,25.11
2018-07-09T07:36:38.253Z,23.81
2018-07-09T07:37:38.156Z,23.40
2018-07-09T07:39:30.887Z,23.24
2018-07-09T07:40:30.770Z,23.26
2018-07-09T07:42:23.473Z,23.47
2018-07-09T07:43:23.396Z,23.21
2018-07-09T07:45:16.097Z,23.00
2018-07-09T07:46:15.983Z,22.99
2018-07-09T07:48:08.678Z,23.09
2018-07-09T07:49:08.590Z,23.42
2018-07-09T07:51:01.308Z,23.85
2018-07-09T07:52:01.188Z,23.92
2018-07-09T07:53:53.889Z,23.57
2018-07-09T07:54:53.788Z,23.82
2018-07-09T07:56:46.516Z,24.00
2018-07-09T07:57:46.389Z,24.08
2018-07-09T07:59:39.086Z,23.89
2018-07-09T08:00:38.996Z,23.82
2018-07-09T08:02:31.705Z,23.79
2018-07-09T08:03:31.597Z,23.63
2018-07-09T08:05:24.288Z,23.40
2018-07-09T08:06:24.194Z,23.63
2018-07-09T08:08:16.919Z,23.12
2018-07-09T08:09:16.837Z,23.16
2018-07-09T08:11:11.674Z,22.79
2018-07-09T08:13:00.561Z,22.64
2018-07-09T08:14:02.107Z,22.76
2018-07-09T08:15:02.226Z,22.88
2018-07-09T08:16:54.680Z,23.44
2018-07-09T08:17:54.587Z,23.62
2018-07-09T08:19:47.308Z,25.15
2018-07-09T08:20:47.190Z,25.45
2018-07-09T08:22:39.885Z,25.57
2018-07-09T08:23:39.785Z,25.59
2018-07-09T08:25:32.726Z,25.79
2018-07-09T08:26:32.395Z,25.57
2018-07-09T08:28:25.088Z,25.96
2018-07-09T08:29:24.995Z,26.61
2018-07-09T08:31:17.796Z,27.37
2018-07-09T08:32:17.605Z,28.16
2018-07-09T08:34:10.308Z,28.57
2018-07-09T08:35:10.215Z,29.01
2018-07-09T08:37:02.937Z,29.66
2018-07-09T08:38:02.885Z,29.69
2018-07-09T08:39:55.539Z,30.18
2018-07-09T08:40:55.442Z,30.21
2018-07-09T08:42:48.173Z,30.18
2018-07-09T08:43:48.068Z,29.05
2018-07-09T08:45:40.922Z,28.27
2018-07-09T08:46:40.685Z,28.51
2018-07-09T08:48:33.412Z,27.16
2018-07-09T08:49:33.308Z,26.07
2018-07-09T08:51:26.018Z,26.41
2018-07-09T08:52:25.923Z,26.74
2018-07-09T08:54:18.653Z,26.87
2018-07-09T08:55:18.561Z,27.06
2018-07-09T08:57:11.249Z,26.97
2018-07-09T08:58:11.159Z,26.71
2018-07-09T09:00:03.883Z,26.12
2018-07-09T09:01:03.770Z,26.00
2018-07-09T09:02:56.487Z,26.06
2018-07-09T09:03:56.384Z,26.01
2018-07-09T09:05:49.104Z,25.96
2018-07-09T09:06:48.993Z,25.67
2018-07-09T09:08:41.696Z,25.67
2018-07-09T09:09:41.601Z,25.69
2018-07-09T09:11:34.323Z,25.42
2018-07-09T09:12:34.213Z,25.22
2018-07-09T09:14:26.907Z,25.17
2018-07-09T09:15:26.833Z,25.19
2018-07-09T09:17:19.536Z,24.90
2018-07-09T09:18:19.421Z,24.77
2018-07-09T09:20:12.121Z,24.67
2018-07-09T09:21:12.029Z,24.85
2018-07-09T09:23:04.740Z,24.37
2018-07-09T09:24:04.630Z,24.34
2018-07-09T09:25:57.324Z,24.56
2018-07-09T09:26:57.233Z,24.86
2018-07-09T09:28:49.949Z,24.89
2018-07-09T09:29:49.832Z,24.92
2018-07-09T09:31:42.550Z,24.69
2018-07-09T09:32:42.429Z,24.67
2018-07-09T09:34:35.126Z,24.90
2018-07-09T09:35:35.035Z,25.01
2018-07-09T09:37:27.796Z,24.94
2018-07-09T09:38:27.632Z,24.77
2018-07-09T09:40:20.343Z,24.93
2018-07-09T09:41:20.228Z,24.77
2018-07-09T09:43:13.038Z,24.55
2018-07-09T09:44:12.843Z,24.52
2018-07-09T09:46:05.609Z,24.39
2018-07-09T09:47:05.513Z,24.30
2018-07-09T09:48:58.226Z,23.84
2018-07-09T09:49:58.109Z,24.04
2018-07-09T09:51:50.812Z,24.66
2018-07-09T09:52:50.710Z,24.64
2018-07-09T09:54:43.452Z,24.85
2018-07-09T09:55:43.324Z,24.66
2018-07-09T09:57:36.009Z,24.69
2018-07-09T09:58:35.918Z,24.52
2018-07-09T10:00:28.653Z,24.18
2018-07-09T10:01:28.515Z,24.27
2018-07-09T10:03:21.213Z,24.12
2018-07-09T10:04:21.106Z,23.94
2018-07-09T10:06:13.836Z,24.00
2018-07-09T10:07:13.705Z,23.87
2018-07-09T10:09:06.404Z,24.17
2018-07-09T10:10:06.304Z,24.26
2018-07-09T10:11:59.020Z,24.58
2018-07-09T10:12:58.902Z,24.85
2018-07-09T10:14:51.594Z,24.71
2018-07-09T10:15:51.500Z,25.05
2018-07-09T10:17:44.215Z,25.47
2018-07-09T10:18:44.099Z,25.52
2018-07-09T10:20:36.799Z,25.26
2018-07-09T10:21:36.702Z,25.48
2018-07-09T10:23:29.424Z,25.48
2018-07-09T10:24:29.302Z,25.38
2018-07-09T10:26:21.998Z,25.54
2018-07-09T10:27:21.905Z,25.22
2018-07-09T10:29:14.619Z,25.04
2018-07-09T10:30:14.506Z,24.74
2018-07-09T10:32:07.209Z,24.66
2018-07-09T10:33:07.113Z,24.67
2018-07-09T10:34:59.828Z,24.66
2018-07-09T10:35:59.717Z,24.51
2018-07-09T10:37:52.410Z,24.17
2018-07-09T10:38:52.310Z,24.03
2018-07-09T10:40:45.029Z,24.04
2018-07-09T10:41:44.912Z,24.08
2018-07-09T10:43:37.626Z,23.75
2018-07-09T10:44:37.506Z,23.78
2018-07-09T10:46:30.204Z,23.92
2018-07-09T10:47:30.105Z,23.87
2018-07-09T10:49:22.824Z,24.22
2018-07-09T10:50:22.704Z,24.27
2018-07-09T10:52:15.402Z,24.30
2018-07-09T10:53:15.308Z,24.32
2018-07-09T10:55:08.072Z,24.03
2018-07-09T10:56:07.902Z,23.92
2018-07-09T10:58:00.593Z,23.79
2018-07-09T10:59:00.499Z,23.64
2018-07-09T11:00:53.263Z,23.66
2018-07-09T11:01:53.096Z,23.57
2018-07-09T11:03:45.803Z,23.59
2018-07-09T11:04:45.691Z,23.52
2018-07-09T11:06:38.387Z,23.24
2018-07-09T11:07:38.289Z,23.16
2018-07-09T11:09:30.998Z,23.00
2018-07-09T11:10:30.879Z,23.09
2018-07-09T11:12:23.579Z,23.16
2018-07-09T11:13:23.479Z,23.09
2018-07-09T11:15:16.192Z,23.18
2018-07-09T11:16:16.172Z,23.10
2018-07-09T11:18:08.765Z,23.22
2018-07-09T11:19:08.669Z,23.29
2018-07-09T11:21:01.377Z,23.16
2018-07-09T11:22:01.256Z,23.07
2018-07-09T11:23:53.961Z,22.96
2018-07-09T11:24:53.849Z,22.96
2018-07-09T11:26:46.544Z,22.63
2018-07-09T11:27:46.447Z,22.81
2018-07-09T11:29:39.152Z,22.67
2018-07-09T11:30:39.032Z,22.57
2018-07-09T11:32:31.723Z,22.55
2018-07-09T11:33:31.630Z,22.70
2018-07-09T11:35:24.429Z,22.88
2018-07-09T11:36:24.281Z,22.97
2018-07-09T11:38:16.927Z,22.97
2018-07-09T11:39:16.826Z,23.10
2018-07-09T11:41:09.505Z,23.16
2018-07-09T11:42:09.432Z,23.21
2018-07-09T11:44:02.124Z,23.01
2018-07-09T11:45:02.008Z,23.07
2018-07-09T11:46:54.698Z,23.40
2018-07-09T11:47:54.594Z,23.63
2018-07-09T11:49:47.312Z,24.14
2018-07-09T11:50:47.192Z,24.36
2018-07-09T11:52:39.879Z,24.64
2018-07-09T11:53:39.787Z,24.78
2018-07-09T11:55:32.503Z,24.71
2018-07-09T11:56:32.389Z,24.69
2018-07-09T11:58:25.113Z,24.92
2018-07-09T11:59:24.986Z,24.71
2018-07-09T12:01:17.677Z,24.69
2018-07-09T12:02:17.585Z,24.59
2018-07-09T12:04:10.314Z,24.63
2018-07-09T12:05:10.188Z,24.55
2018-07-09T12:07:02.886Z,24.37
2018-07-09T12:08:02.788Z,24.33
2018-07-09T12:09:55.503Z,24.29
2018-07-09T12:10:55.379Z,24.34
2018-07-09T12:12:48.076Z,24.19
2018-07-09T12:13:47.978Z,24.15
2018-07-09T12:15:40.693Z,24.21
2018-07-09T12:16:40.578Z,24.19
2018-07-09T12:18:33.272Z,24.44
2018-07-09T12:19:33.176Z,24.32
2018-07-09T12:21:25.892Z,24.61
2018-07-09T12:22:25.779Z,24.67
2018-07-09T12:24:18.479Z,24.63
2018-07-09T12:25:18.375Z,24.46
2018-07-09T12:27:11.093Z,24.42
2018-07-09T12:28:10.975Z,24.58
2018-07-09T12:30:03.671Z,24.69
2018-07-09T12:31:03.573Z,24.58
2018-07-09T12:32:56.282Z,24.58
2018-07-09T12:33:56.166Z,24.69
2018-07-09T12:35:48.860Z,24.82
2018-07-09T12:36:48.759Z,24.75
2018-07-09T12:38:41.483Z,24.94
2018-07-09T12:39:41.365Z,25.12
2018-07-09T12:41:34.056Z,25.12
2018-07-09T12:42:33.965Z,25.11
2018-07-09T12:44:26.684Z,25.42
2018-07-09T12:45:26.565Z,25.62
2018-07-09T12:47:19.260Z,25.49
2018-07-09T12:48:19.164Z,25.75
2018-07-09T12:50:11.888Z,25.85
2018-07-09T12:51:11.774Z,25.82
2018-07-09T12:53:04.471Z,25.54
2018-07-09T12:54:04.370Z,25.47
2018-07-09T12:55:57.088Z,25.78
2018-07-09T12:56:56.976Z,25.91
2018-07-09T12:58:49.674Z,25.81
2018-07-09T12:59:49.576Z,26.00
2018-07-09T13:01:42.336Z,25.86
2018-07-09T13:02:42.187Z,26.07
2018-07-09T13:04:34.886Z,26.12
2018-07-09T13:05:34.793Z,26.39
2018-07-09T13:07:27.501Z,26.64
2018-07-09T13:08:27.399Z,26.22
2018-07-09T13:10:20.090Z,26.06
2018-07-09T13:11:19.992Z,26.01
2018-07-09T13:13:12.707Z,26.04
2018-07-09T13:14:12.590Z,25.94
2018-07-09T13:16:05.287Z,25.76
2018-07-09T13:17:05.196Z,25.45
2018-07-09T13:18:57.912Z,25.56
2018-07-09T13:19:57.859Z,25.60
2018-07-09T13:21:50.485Z,25.38
2018-07-09T13:22:50.394Z,25.56
2018-07-09T13:24:43.103Z,25.38
2018-07-09T13:25:42.993Z,25.38
2018-07-09T13:27:35.680Z,24.97
2018-07-09T13:28:35.581Z,25.12
2018-07-09T13:30:28.295Z,25.04
2018-07-09T13:31:28.182Z,25.17
2018-07-09T13:33:20.884Z,24.89
2018-07-09T13:34:20.795Z,24.85
2018-07-09T13:36:13.493Z,24.85
2018-07-09T13:37:13.381Z,25.01
2018-07-09T13:39:06.080Z,25.04
2018-07-09T13:40:05.980Z,25.20
2018-07-09T13:41:58.693Z,25.15
2018-07-09T13:42:58.577Z,25.05
2018-07-09T13:44:51.269Z,25.09
2018-07-09T13:45:51.168Z,25.42
2018-07-09T13:47:43.877Z,25.57
2018-07-09T13:48:43.766Z,25.71
2018-07-09T13:50:36.463Z,25.64
2018-07-09T13:51:36.367Z,25.82
2018-07-09T13:53:29.087Z,25.75
2018-07-09T13:54:28.971Z,25.74
2018-07-09T13:56:21.659Z,25.66
2018-07-09T13:57:21.558Z,25.69
2018-07-09T13:59:14.296Z,25.82
2018-07-09T14:00:14.180Z,25.70
2018-07-09T14:02:06.871Z,25.70
2018-07-09T14:03:06.777Z,25.75
2018-07-09T14:04:59.503Z,25.54
2018-07-09T14:05:59.377Z,25.41
2018-07-09T14:07:52.065Z,25.09
2018-07-09T14:08:51.974Z,24.83
2018-07-09T14:10:44.693Z,24.71
2018-07-09T14:11:44.567Z,24.64
2018-07-09T14:13:37.260Z,24.64
2018-07-09T14:14:37.164Z,24.69
2018-07-09T14:16:29.887Z,24.67
2018-07-09T14:17:29.755Z,24.58
2018-07-09T14:19:22.449Z,24.30
2018-07-09T14:20:22.359Z,24.04
2018-07-09T14:22:15.080Z,23.96
2018-07-09T14:23:14.942Z,23.92
2018-07-09T14:25:07.632Z,23.94
2018-07-09T14:26:07.536Z,24.03
2018-07-09T14:28:00.242Z,24.08
2018-07-09T14:29:00.128Z,23.96
2018-07-09T14:30:52.816Z,23.81
2018-07-09T14:31:52.721Z,23.87
2018-07-09T14:33:45.432Z,23.82
2018-07-09T14:34:45.311Z,23.87
2018-07-09T14:36:38.009Z,23.93
2018-07-09T14:37:37.910Z,23.92
2018-07-09T14:39:30.619Z,23.97
2018-07-09T14:40:30.508Z,23.99
2018-07-09T14:42:23.188Z,23.89
2018-07-09T14:43:23.090Z,23.94
2018-07-09T14:45:15.823Z,23.84
2018-07-09T14:46:15.682Z,23.74
2018-07-09T14:48:08.390Z,23.67
2018-07-09T14:49:08.280Z,23.59
2018-07-09T14:51:00.964Z,23.44
2018-07-09T14:52:00.869Z,23.35
2018-07-09T14:53:53.573Z,23.28
2018-07-09T14:54:53.461Z,23.19
2018-07-09T14:56:46.149Z,23.19
2018-07-09T14:57:46.053Z,23.14
2018-07-09T14:59:38.775Z,23.19
2018-07-09T15:00:38.649Z,23.37
2018-07-09T15:02:31.339Z,23.38
2018-07-09T15:03:31.243Z,23.55
2018-07-09T15:05:23.948Z,23.56
2018-07-09T15:06:23.836Z,23.74
2018-07-09T15:08:16.524Z,24.04
2018-07-09T15:09:16.428Z,24.12
2018-07-09T15:11:09.144Z,24.14
2018-07-09T15:12:09.022Z,24.15
2018-07-09T15:14:01.714Z,24.18
2018-07-09T15:15:01.613Z,24.37
2018-07-09T15:16:54.326Z,24.55
2018-07-09T15:17:54.210Z,24.59
2018-07-09T15:19:46.905Z,24.40
2018-07-09T15:20:46.804Z,24.37
2018-07-09T15:22:39.528Z,24.30
2018-07-09T15:23:39.415Z,24.58
2018-07-09T15:25:32.099Z,24.80
2018-07-09T15:26:32.009Z,24.78
2018-07-09T15:28:24.716Z,24.67
2018-07-09T15:29:24.603Z,24.82
2018-07-09T15:31:17.296Z,25.48
2018-07-09T15:32:17.197Z,25.48
2018-07-09T15:34:09.922Z,25.76
2018-07-09T15:35:09.799Z,25.96
2018-07-09T15:37:02.502Z,25.51
2018-07-09T15:38:02.403Z,25.14
2018-07-09T15:39:55.122Z,24.94
2018-07-09T15:40:55.004Z,24.94
2018-07-09T15:42:47.698Z,24.75
2018-07-09T15:43:47.600Z,24.70
2018-07-09T15:45:40.316Z,24.87
2018-07-09T15:46:40.199Z,24.77
2018-07-09T15:48:32.893Z,24.66
2018-07-09T15:49:32.791Z,24.63
2018-07-09T15:51:25.508Z,24.74
2018-07-09T15:52:25.390Z,24.49
2018-07-09T15:54:18.239Z,24.46
2018-07-09T15:55:17.986Z,24.37
2018-07-09T15:57:10.695Z,24.19
2018-07-09T15:58:10.577Z,24.11
2018-07-09T16:00:03.328Z,24.07
2018-07-09T16:01:03.181Z,24.04
2018-07-09T16:02:56.033Z,23.93
2018-07-09T16:03:55.774Z,23.74
2018-07-09T16:05:48.466Z,23.78
2018-07-09T16:06:48.366Z,23.81
2018-07-09T16:08:41.077Z,24.22
2018-07-09T16:09:40.961Z,24.24
2018-07-09T16:11:33.657Z,24.17
2018-07-09T16:12:33.562Z,24.29
2018-07-09T16:14:26.269Z,24.55
2018-07-09T16:15:26.153Z,24.52
2018-07-09T16:17:18.845Z,24.32
2018-07-09T16:18:18.754Z,24.44
2018-07-09T16:20:11.464Z,24.64
2018-07-09T16:21:11.353Z,24.69
2018-07-09T16:23:04.043Z,24.71
2018-07-09T16:24:03.947Z,24.69
2018-07-09T16:25:56.657Z,24.63
2018-07-09T16:26:56.543Z,24.48
2018-07-09T16:28:49.332Z,24.21
2018-07-09T16:29:49.137Z,24.17
2018-07-09T16:31:41.843Z,23.92
2018-07-09T16:32:41.727Z,23.66
2018-07-09T16:34:34.423Z,23.50
2018-07-09T16:35:34.326Z,23.35
2018-07-09T16:37:27.029Z,23.25
2018-07-09T16:38:26.921Z,23.10
2018-07-09T16:40:19.641Z,23.12
2018-07-09T16:41:19.518Z,23.10
2018-07-09T16:43:12.204Z,23.37
2018-07-09T16:44:12.110Z,23.22
2018-07-09T16:46:04.812Z,23.24
2018-07-09T16:47:04.810Z,23.24
2018-07-09T16:48:57.427Z,23.12
2018-07-09T16:49:57.298Z,23.15
2018-07-09T16:51:50.015Z,23.18
2018-07-09T16:52:49.891Z,23.18
2018-07-09T16:54:42.624Z,22.97
2018-07-09T16:55:42.481Z,22.91
2018-07-09T16:57:35.195Z,22.84
2018-07-09T16:58:35.066Z,22.88
2018-07-09T17:00:27.757Z,22.85
2018-07-09T17:01:27.665Z,22.96
2018-07-09T17:03:20.443Z,23.04
2018-07-09T17:04:20.268Z,23.06
2018-07-09T17:06:12.943Z,22.73
2018-07-09T17:07:12.843Z,22.63
2018-07-09T17:09:05.570Z,22.66
2018-07-09T17:10:05.444Z,22.73
2018-07-09T17:11:58.138Z,22.79
2018-07-09T17:12:58.033Z,22.70
2018-07-09T17:14:50.749Z,22.54
2018-07-09T17:15:50.631Z,22.48
2018-07-09T17:17:43.322Z,22.15
2018-07-09T17:18:43.221Z,22.12
2018-07-09T17:20:35.932Z,22.05
2018-07-09T17:21:35.813Z,21.80
2018-07-09T17:23:28.502Z,21.86
2018-07-09T17:24:28.401Z,21.86
2018-07-09T17:26:21.173Z,21.99
2018-07-09T17:27:21.064Z,21.96
2018-07-09T17:29:13.687Z,21.94
2018-07-09T17:30:13.593Z,21.92
2018-07-09T17:32:06.338Z,22.11
2018-07-09T17:33:06.177Z,21.99
2018-07-09T17:34:58.921Z,21.94
2018-07-09T17:35:58.765Z,21.96
2018-07-09T17:37:51.487Z,22.15
2018-07-09T17:38:51.429Z,21.96
2018-07-09T17:40:44.053Z,21.83
2018-07-09T17:41:43.952Z,21.86
2018-07-09T17:43:36.677Z,21.70
2018-07-09T17:44:36.543Z,21.64
2018-07-09T17:46:29.230Z,21.53
2018-07-09T17:47:29.126Z,21.49
2018-07-09T17:49:21.837Z,21.43
2018-07-09T17:50:21.720Z,21.27
2018-07-09T17:52:14.404Z,20.97
2018-07-09T17:53:14.315Z,20.88
2018-07-09T17:55:07.026Z,20.71
2018-07-09T17:56:06.896Z,20.68
2018-07-09T17:57:59.583Z,20.64
2018-07-09T17:58:59.483Z,20.71
2018-07-09T18:00:52.340Z,20.68
2018-07-09T18:01:52.085Z,20.57
2018-07-09T18:03:44.784Z,20.42
2018-07-09T18:04:44.686Z,20.37
2018-07-09T18:06:37.389Z,20.25
2018-07-09T18:07:37.271Z,20.15
2018-07-09T18:09:29.964Z,20.23
2018-07-09T18:10:29.907Z,20.34
2018-07-09T18:12:22.578Z,20.30
2018-07-09T18:13:22.450Z,20.32
2018-07-09T18:15:15.133Z,20.23
2018-07-09T18:16:15.030Z,20.15
2018-07-09T18:18:07.735Z,20.12
2018-07-09T18:19:07.622Z,20.10
2018-07-09T18:21:00.294Z,20.12
2018-07-09T18:22:00.199Z,20.18
2018-07-09T18:23:52.908Z,20.12
2018-07-09T18:24:52.795Z,20.10
2018-07-09T18:26:45.474Z,20.00
2018-07-09T18:27:45.374Z,19.98
2018-07-09T18:29:38.093Z,19.90
2018-07-09T18:30:37.959Z,19.87
2018-07-09T18:32:30.691Z,19.85
2018-07-09T18:33:30.542Z,20.00
2018-07-09T18:35:23.290Z,20.04
2018-07-09T18:36:23.125Z,20.00
2018-07-09T18:38:15.815Z,19.98
2018-07-09T18:39:15.712Z,19.97
2018-07-09T18:41:08.416Z,19.98
2018-07-09T18:42:08.397Z,19.87
2018-07-09T18:44:00.975Z,20.01
2018-07-09T18:45:01.046Z,19.86
2018-07-09T18:46:53.580Z,19.86
2018-07-09T18:47:53.477Z,19.92
2018-07-09T18:49:46.149Z,19.80
2018-07-09T18:50:46.037Z,19.67
2018-07-09T18:52:38.739Z,19.57
2018-07-09T18:53:38.621Z,19.65
2018-07-09T18:55:31.308Z,19.65
2018-07-09T18:56:31.204Z,19.63
2018-07-09T18:58:23.979Z,19.52
2018-07-09T18:59:23.815Z,19.63
2018-07-09T19:01:16.488Z,19.49
2018-07-09T19:02:16.387Z,19.56
2018-07-09T19:04:09.088Z,19.53
2018-07-09T19:05:08.985Z,19.47
2018-07-09T19:07:01.656Z,19.50
2018-07-09T19:08:01.578Z,19.52
2018-07-09T19:09:54.257Z,19.61
2018-07-09T19:10:54.140Z,19.61
2018-07-09T19:12:46.831Z,19.45
2018-07-09T19:13:46.725Z,19.38
2018-07-09T19:15:39.488Z,19.32
2018-07-09T19:16:39.316Z,19.37
2018-07-09T19:18:32.006Z,19.32
2018-07-09T19:19:31.902Z,19.31
2018-07-09T19:21:24.695Z,19.38
2018-07-09T19:22:24.517Z,19.47
2018-07-09T19:24:17.209Z,19.37
2018-07-09T19:25:17.081Z,19.31
2018-07-09T19:27:09.848Z,19.32
2018-07-09T19:28:09.718Z,19.31
2018-07-09T19:30:02.347Z,19.28
2018-07-09T19:31:02.261Z,19.28
2018-07-09T19:32:54.962Z,19.28
2018-07-09T19:33:54.871Z,19.32
2018-07-09T19:35:47.517Z,19.42
2018-07-09T19:36:47.501Z,19.46
2018-07-09T19:38:40.127Z,19.37
2018-07-09T19:39:40.009Z,19.32
2018-07-09T19:41:32.701Z,19.32
2018-07-09T19:42:32.591Z,19.30
2018-07-09T19:44:25.294Z,19.19
2018-07-09T19:45:25.170Z,19.24
2018-07-09T19:47:17.851Z,19.28
2018-07-09T19:48:17.753Z,19.31
2018-07-09T19:50:10.461Z,19.45
2018-07-09T19:51:10.328Z,19.28
2018-07-09T19:53:03.017Z,19.42
2018-07-09T19:54:02.916Z,19.42
2018-07-09T19:55:55.630Z,19.43
2018-07-09T19:56:55.513Z,19.43
2018-07-09T19:58:48.195Z,19.37
2018-07-09T19:59:48.089Z,19.35
2018-07-09T20:01:40.997Z,19.32
2018-07-09T20:02:40.856Z,19.32
2018-07-09T20:04:33.687Z,19.16
2018-07-09T20:05:33.546Z,19.25
2018-07-09T20:07:26.148Z,19.19
2018-07-09T20:08:26.016Z,19.19
2018-07-09T20:10:18.707Z,19.23
2018-07-09T20:11:18.604Z,19.19
2018-07-09T20:13:11.314Z,19.17
2018-07-09T20:14:11.435Z,19.02
2018-07-09T20:16:03.878Z,19.05
2018-07-09T20:17:03.769Z,18.97
2018-07-09T20:18:56.554Z,19.02
2018-07-09T20:19:56.429Z,18.90
2018-07-09T20:21:49.271Z,18.91
2018-07-09T20:22:49.017Z,19.05
2018-07-09T20:24:41.727Z,19.06
2018-07-09T20:25:41.605Z,19.05
2018-07-09T20:27:34.285Z,19.02
2018-07-09T20:28:34.180Z,19.00
2018-07-09T20:30:26.890Z,18.99
2018-07-09T20:31:26.762Z,18.97
2018-07-09T20:33:19.450Z,19.00
2018-07-09T20:34:19.347Z,18.91
2018-07-09T20:36:12.062Z,18.74
2018-07-09T20:37:11.930Z,18.54
2018-07-09T20:39:04.616Z,18.59
2018-07-09T20:40:04.546Z,18.50
2018-07-09T20:41:57.358Z,18.53
2018-07-09T20:42:57.098Z,18.54
2018-07-09T20:44:49.781Z,18.45
2018-07-09T20:45:49.739Z,18.49
2018-07-09T20:47:42.383Z,18.49
2018-07-09T20:48:42.279Z,18.36
2018-07-09T20:50:34.955Z,18.35
2018-07-09T20:51:34.856Z,18.38
2018-07-09T20:53:27.619Z,18.23
2018-07-09T20:54:27.505Z,18.21
2018-07-09T20:56:20.188Z,18.13
2018-07-09T20:57:20.091Z,18.08
2018-07-09T20:59:12.792Z,18.11
2018-07-09T21:00:12.667Z,18.13
2018-07-09T21:02:05.348Z,18.26
2018-07-09T21:03:05.247Z,18.29
2018-07-09T21:04:57.950Z,18.26
2018-07-09T21:05:57.832Z,18.26
2018-07-09T21:07:50.536Z,18.32
2018-07-09T21:08:50.406Z,18.16
2018-07-09T21:10:43.088Z,18.06
2018-07-09T21:11:42.984Z,18.01
2018-07-09T21:13:35.708Z,18.05
2018-07-09T21:14:35.563Z,17.96
2018-07-09T21:16:28.403Z,18.03
2018-07-09T21:17:28.148Z,18.03
2018-07-09T21:19:20.843Z,18.08
2018-07-09T21:20:20.725Z,18.03
2018-07-09T21:22:13.431Z,18.08
2018-07-09T21:23:13.317Z,17.99
2018-07-09T21:25:06.013Z,17.99
2018-07-09T21:26:05.890Z,17.99
2018-07-09T21:27:58.570Z,18.05
2018-07-09T21:28:58.475Z,18.02
2018-07-09T21:30:51.181Z,18.02
2018-07-09T21:31:51.054Z,18.06
2018-07-09T21:33:43.730Z,18.06
2018-07-09T21:34:43.633Z,18.05
2018-07-09T21:36:36.342Z,18.08
2018-07-09T21:37:36.330Z,18.16
2018-07-09T21:39:28.888Z,18.16
2018-07-09T21:40:28.794Z,18.20
2018-07-09T21:42:21.487Z,18.16
2018-07-09T21:43:21.362Z,18.03
2018-07-09T21:45:14.048Z,18.05
2018-07-09T21:46:13.949Z,18.06
2018-07-09T21:48:10.554Z,18.01
2018-07-09T21:49:06.526Z,18.03
2018-07-09T21:50:59.204Z,17.94
2018-07-09T21:51:59.100Z,18.01
2018-07-09T21:53:51.824Z,18.05
2018-07-09T21:54:51.710Z,18.03
2018-07-09T21:56:44.366Z,18.03
2018-07-09T21:57:44.262Z,18.06
2018-07-09T21:59:36.966Z,17.95
